Time;durP1;ratioP1;P1;durP2;ratioP2;P2;SDS_P1;SDS_P2;PMS_P1;PMS_P2;Temp;Humidity;BMP_temperature;BMP_pressure;BME280_temperature;BME280_humidity;BME280_pressure;Samples;Min_cycle;Max_cycle;Signal;HPM_P1;HPM_P2
2022/03/25 00:02:19;;;;;;;34.33;27.50;;;10.90;43.50;;;;;;5055055;28;20188;-75
2022/03/25 00:04:45;;;;;;;32.77;27.10;;;10.80;43.50;;;;;;5077834;28;20628;-75
2022/03/25 00:07:11;;;;;;;35.30;28.00;;;10.80;43.60;;;;;;5054827;28;20179;-75
2022/03/25 00:09:37;;;;;;;34.83;26.47;;;10.80;43.70;;;;;;5072504;28;20630;-75
2022/03/25 00:12:04;;;;;;;34.87;26.13;;;10.70;43.80;;;;;;5038179;28;20211;-75
2022/03/25 00:14:30;;;;;;;33.40;25.77;;;10.60;43.80;;;;;;5079043;28;20175;-75
2022/03/25 00:16:56;;;;;;;35.53;28.05;;;10.60;43.90;;;;;;5067817;28;20172;-75
2022/03/25 00:19:21;;;;;;;33.13;26.30;;;10.60;44.10;;;;;;5081473;28;20185;-75
2022/03/25 00:21:47;;;;;;;36.33;26.70;;;10.50;44.10;;;;;;5078734;28;20229;-75
2022/03/25 00:24:13;;;;;;;40.03;27.60;;;10.50;44.20;;;;;;5080876;28;20172;-75
2022/03/25 00:26:38;;;;;;;39.27;26.90;;;10.50;44.40;;;;;;5089637;28;20198;-75
2022/03/25 00:29:04;;;;;;;34.85;27.17;;;10.40;44.50;;;;;;5076816;28;20627;-75
2022/03/25 00:31:34;;;;;;;37.15;27.08;;;10.40;44.60;;;;;;5064546;28;20225;-75
2022/03/25 00:34:00;;;;;;;35.57;26.00;;;10.40;44.70;;;;;;5074671;28;20579;-75
2022/03/25 00:36:26;;;;;;;32.27;25.13;;;10.30;44.80;;;;;;5092672;28;20164;-75
2022/03/25 00:38:52;;;;;;;33.03;26.35;;;10.40;44.90;;;;;;5092388;28;20171;-73
2022/03/25 00:41:18;;;;;;;37.20;27.77;;;10.30;45.30;;;;;;5078799;28;20518;-76
2022/03/25 00:43:47;;;;;;;37.77;26.97;;;10.30;45.00;;;;;;5092515;28;20596;-73
2022/03/25 00:46:13;;;;;;;35.95;26.23;;;10.30;45.10;;;;;;5074377;28;20683;-74
2022/03/25 00:48:39;;;;;;;34.53;26.30;;;10.30;45.10;;;;;;5092329;28;20293;-73
2022/03/25 00:51:05;;;;;;;36.80;27.70;;;10.20;45.20;;;;;;5074165;28;20175;-74
2022/03/25 00:53:32;;;;;;;33.60;27.40;;;10.20;45.50;;;;;;5092509;28;20199;-74
2022/03/25 00:56:00;;;;;;;33.75;25.60;;;10.20;45.60;;;;;;5074393;28;20159;-74
2022/03/25 00:58:29;;;;;;;30.33;24.90;;;10.20;45.50;;;;;;5092400;28;20247;-74
2022/03/25 01:00:55;;;;;;;36.85;27.88;;;10.10;45.40;;;;;;5074046;28;20577;-74
2022/03/25 01:03:22;;;;;;;33.70;25.20;;;10.10;45.60;;;;;;5096136;28;20203;-74
2022/03/25 01:05:49;;;;;;;36.88;26.95;;;10.10;45.70;;;;;;5102395;28;20178;-74
2022/03/25 01:08:15;;;;;;;34.70;26.20;;;10.10;45.80;;;;;;5085306;28;20168;-74
2022/03/25 01:10:41;;;;;;;33.72;27.23;;;10.00;46.30;;;;;;5101531;28;20234;-74
2022/03/25 01:13:07;;;;;;;35.37;24.73;;;10.00;45.90;;;;;;5100840;28;20200;-74
2022/03/25 01:15:34;;;;;;;35.20;28.30;;;10.00;46.00;;;;;;5085042;28;20774;-74
2022/03/25 01:18:01;;;;;;;42.08;27.95;;;10.00;46.10;;;;;;5087069;28;20163;-74
2022/03/25 01:20:27;;;;;;;37.75;27.80;;;9.90;46.90;;;;;;5102625;28;20164;-74
2022/03/25 01:22:52;;;;;;;32.10;25.20;;;9.90;47.00;;;;;;5083282;28;20199;-74
2022/03/25 01:25:18;;;;;;;35.20;27.20;;;9.90;47.10;;;;;;5102882;28;20160;-72
2022/03/25 01:27:47;;;;;;;32.17;26.10;;;9.90;47.20;;;;;;5074445;28;20168;-74
2022/03/25 01:30:12;;;;;;;36.63;26.87;;;9.80;47.30;;;;;;5057605;28;20195;-74
2022/03/25 01:32:38;;;;;;;34.60;26.70;;;9.80;47.30;;;;;;5092372;28;20188;-74
2022/03/25 01:35:12;;;;;;;39.67;26.87;;;9.80;47.40;;;;;;5092360;28;20524;-74
2022/03/25 01:37:38;;;;;;;35.13;26.52;;;9.70;47.50;;;;;;5092042;28;20569;-74
2022/03/25 01:40:09;;;;;;;37.33;26.65;;;9.70;47.60;;;;;;5074069;28;20175;-74
2022/03/25 01:42:37;;;;;;;33.85;27.42;;;9.70;47.70;;;;;;5073543;28;20200;-74
2022/03/25 01:45:05;;;;;;;32.92;26.30;;;9.70;47.80;;;;;;5072244;28;20531;-73
2022/03/25 01:47:32;;;;;;;34.75;26.17;;;9.70;47.90;;;;;;5072041;28;20164;-74
2022/03/25 01:50:00;;;;;;;31.20;26.02;;;9.60;48.10;;;;;;5071820;28;20271;-74
2022/03/25 01:52:26;;;;;;;39.05;27.75;;;9.60;48.10;;;;;;5071949;28;20524;-74
2022/03/25 01:54:52;;;;;;;36.83;27.05;;;9.60;48.10;;;;;;5075616;28;20627;-74
2022/03/25 01:57:23;;;;;;;37.42;29.30;;;9.50;48.10;;;;;;5072078;28;20222;-74
2022/03/25 01:59:49;;;;;;;34.67;27.30;;;9.50;48.30;;;;;;5053912;28;20176;-74
2022/03/25 02:02:15;;;;;;;32.43;26.03;;;9.50;48.30;;;;;;5053618;28;20180;-74
2022/03/25 02:04:41;;;;;;;39.97;28.37;;;9.50;48.40;;;;;;5071412;28;20562;-74
2022/03/25 02:07:08;;;;;;;32.50;24.80;;;9.40;48.50;;;;;;5053536;28;20605;-74
2022/03/25 02:09:33;;;;;;;35.83;26.10;;;9.40;48.50;;;;;;5053589;28;20294;-74
2022/03/25 02:12:03;;;;;;;36.65;27.55;;;9.40;48.60;;;;;;5053478;28;20203;-74
2022/03/25 02:14:29;;;;;;;37.58;26.60;;;9.40;48.70;;;;;;5053543;28;20164;-74
2022/03/25 02:16:55;;;;;;;37.13;26.67;;;9.40;48.80;;;;;;5053381;28;20202;-74
2022/03/25 02:19:25;;;;;;;34.00;25.00;;;9.30;48.90;;;;;;5070992;28;20168;-74
2022/03/25 02:21:51;;;;;;;33.97;24.95;;;9.40;49.00;;;;;;5070987;28;20575;-74
2022/03/25 02:24:23;;;;;;;32.03;25.77;;;9.30;49.00;;;;;;5053499;28;20185;-74
2022/03/25 02:26:51;;;;;;;34.05;25.38;;;9.30;49.10;;;;;;5053415;28;20164;-73
2022/03/25 02:29:17;;;;;;;31.02;23.90;;;9.30;49.20;;;;;;5053049;28;20200;-73
2022/03/25 02:31:44;;;;;;;36.03;26.10;;;9.20;49.20;;;;;;5055335;28;20172;-74
2022/03/25 02:34:11;;;;;;;33.65;25.98;;;9.20;49.40;;;;;;5036692;28;20586;-73
2022/03/25 02:36:43;;;;;;;34.45;26.38;;;9.20;49.70;;;;;;5071135;28;20196;-73
2022/03/25 02:39:10;;;;;;;32.53;24.95;;;9.20;49.90;;;;;;5070969;28;20168;-73
2022/03/25 02:41:36;;;;;;;32.83;25.65;;;9.10;49.80;;;;;;5036666;28;20198;-73
2022/03/25 02:44:03;;;;;;;32.50;25.07;;;9.20;50.00;;;;;;5036476;28;20667;-73
2022/03/25 02:46:30;;;;;;;36.28;25.90;;;9.10;50.00;;;;;;5053287;28;20534;-73
2022/03/25 02:48:56;;;;;;;33.10;25.33;;;9.10;50.10;;;;;;5052936;28;20172;-73
2022/03/25 02:51:22;;;;;;;34.57;26.70;;;9.10;50.80;;;;;;5052996;28;20573;-73
2022/03/25 02:53:47;;;;;;;33.80;25.33;;;9.10;50.30;;;;;;5074156;28;20594;-73
2022/03/25 02:56:13;;;;;;;32.83;26.60;;;9.10;50.40;;;;;;5074689;28;20558;-73
2022/03/25 02:58:39;;;;;;;31.70;25.93;;;9.00;51.00;;;;;;5056426;28;20172;-73
2022/03/25 03:01:06;;;;;;;33.93;26.53;;;9.00;50.40;;;;;;5074265;28;20578;-73
2022/03/25 03:03:33;;;;;;;33.25;26.40;;;9.00;50.50;;;;;;5056569;28;20184;-73
2022/03/25 03:05:59;;;;;;;32.75;24.35;;;9.00;50.70;;;;;;5056599;28;20704;-73
2022/03/25 03:08:25;;;;;;;32.95;25.85;;;9.00;50.80;;;;;;5060463;28;20164;-73
2022/03/25 03:10:51;;;;;;;35.15;27.83;;;8.90;50.80;;;;;;5056284;28;20192;-73
2022/03/25 03:13:18;;;;;;;33.53;26.15;;;8.90;50.90;;;;;;5074239;28;20187;-73
2022/03/25 03:15:44;;;;;;;33.25;24.88;;;8.90;51.00;;;;;;5074336;28;20190;-73
2022/03/25 03:18:10;;;;;;;36.10;26.60;;;8.90;51.10;;;;;;5056111;28;20639;-73
2022/03/25 03:20:35;;;;;;;35.27;28.20;;;8.80;51.10;;;;;;5074065;28;20575;-73
2022/03/25 03:23:01;;;;;;;34.37;24.17;;;8.80;51.30;;;;;;5073834;28;20655;-73
2022/03/25 03:25:27;;;;;;;33.47;24.20;;;8.80;51.40;;;;;;5073989;28;20255;-73
2022/03/25 03:27:54;;;;;;;30.80;23.43;;;8.80;51.40;;;;;;5055840;28;20274;-74
2022/03/25 03:30:20;;;;;;;33.55;25.15;;;8.70;51.50;;;;;;5055965;28;20204;-74
2022/03/25 03:32:46;;;;;;;31.33;22.98;;;8.70;51.60;;;;;;5073726;28;20180;-74
2022/03/25 03:35:12;;;;;;;29.40;23.03;;;8.70;51.70;;;;;;5056296;28;20161;-74
2022/03/25 03:37:46;;;;;;;35.20;25.05;;;8.70;52.00;;;;;;5074014;28;20183;-73
2022/03/25 03:40:17;;;;;;;33.25;23.02;;;8.60;52.30;;;;;;5055770;28;20538;-74
2022/03/25 03:42:43;;;;;;;24.83;19.73;;;8.60;52.00;;;;;;5073665;28;20184;-74
2022/03/25 03:45:09;;;;;;;29.20;23.60;;;8.60;51.90;;;;;;5043525;28;20270;-73
2022/03/25 03:47:36;;;;;;;27.73;21.70;;;8.60;52.10;;;;;;5055829;28;20621;-74
2022/03/25 03:50:04;;;;;;;30.65;23.42;;;8.60;52.30;;;;;;5073695;28;20502;-74
2022/03/25 03:52:30;;;;;;;29.25;22.73;;;8.50;52.40;;;;;;5055543;28;20540;-73
2022/03/25 03:54:56;;;;;;;28.70;23.50;;;8.40;52.40;;;;;;5039042;28;20233;-74
2022/03/25 03:57:22;;;;;;;34.63;22.83;;;8.40;52.80;;;;;;5073277;28;20203;-74
2022/03/25 03:59:48;;;;;;;28.37;23.10;;;8.40;52.80;;;;;;5055549;28;21189;-74
2022/03/25 04:02:14;;;;;;;31.60;22.95;;;8.40;53.00;;;;;;5073293;28;20606;-74
2022/03/25 04:04:40;;;;;;;26.67;20.37;;;8.30;53.10;;;;;;5054540;28;20539;-74
2022/03/25 04:07:07;;;;;;;26.17;21.10;;;8.30;53.20;;;;;;5055136;28;20897;-74
2022/03/25 04:09:36;;;;;;;25.25;20.75;;;8.30;53.30;;;;;;5038660;28;20618;-74
2022/03/25 04:12:02;;;;;;;25.85;21.33;;;8.30;53.40;;;;;;5073242;28;20639;-74
2022/03/25 04:14:28;;;;;;;25.33;20.40;;;8.30;53.50;;;;;;5073354;28;20171;-74
2022/03/25 04:16:54;;;;;;;27.87;21.43;;;8.30;53.60;;;;;;5054954;28;20600;-74
2022/03/25 04:19:20;;;;;;;28.20;22.00;;;8.30;53.70;;;;;;5072909;28;20578;-74
2022/03/25 04:21:45;;;;;;;28.20;20.87;;;8.20;53.80;;;;;;5076968;28;20168;-73
2022/03/25 04:24:11;;;;;;;28.97;21.00;;;8.20;53.90;;;;;;5073045;28;20176;-74
2022/03/25 04:26:37;;;;;;;23.23;20.27;;;8.20;54.00;;;;;;5072779;28;20632;-73
2022/03/25 04:29:02;;;;;;;25.87;21.13;;;8.20;54.20;;;;;;5054532;28;20176;-74
2022/03/25 04:31:28;;;;;;;31.97;24.40;;;8.20;54.40;;;;;;5072533;28;20161;-73
2022/03/25 04:33:54;;;;;;;25.70;20.10;;;8.20;54.60;;;;;;5072611;28;20210;-73
2022/03/25 04:36:20;;;;;;;29.23;22.57;;;8.10;54.70;;;;;;5072805;28;20180;-73
2022/03/25 04:38:45;;;;;;;31.60;22.70;;;8.10;54.90;;;;;;5072121;28;20577;-74
2022/03/25 04:41:11;;;;;;;25.93;21.10;;;8.10;54.80;;;;;;5054622;28;20601;-74
2022/03/25 04:43:37;;;;;;;27.47;21.03;;;8.10;55.00;;;;;;5054712;28;20681;-74
2022/03/25 04:46:04;;;;;;;27.15;21.30;;;8.00;55.10;;;;;;5072589;28;20536;-74
2022/03/25 04:48:30;;;;;;;29.17;22.85;;;8.00;55.30;;;;;;5054225;28;20167;-73
2022/03/25 04:50:56;;;;;;;26.70;20.05;;;8.00;55.40;;;;;;5072192;28;20207;-74
2022/03/25 04:53:22;;;;;;;24.60;20.30;;;8.00;55.90;;;;;;5072489;28;20532;-74
2022/03/25 04:55:48;;;;;;;25.10;20.13;;;8.00;55.90;;;;;;5054446;28;21118;-74
2022/03/25 04:58:14;;;;;;;26.43;20.80;;;8.00;55.90;;;;;;5075740;28;20168;-74
2022/03/25 05:00:41;;;;;;;23.63;20.60;;;7.90;55.90;;;;;;5054894;28;20176;-74
2022/03/25 05:03:07;;;;;;;32.95;23.98;;;7.90;56.10;;;;;;5072213;28;20655;-74
2022/03/25 05:05:32;;;;;;;28.92;21.00;;;7.90;56.40;;;;;;5072197;28;20199;-74
2022/03/25 05:07:58;;;;;;;28.47;21.57;;;7.90;56.40;;;;;;5071700;28;20204;-74
2022/03/25 05:10:24;;;;;;;30.00;22.00;;;7.80;56.50;;;;;;5053932;28;20200;-74
2022/03/25 05:12:49;;;;;;;27.63;20.77;;;7.80;56.60;;;;;;5071789;28;20180;-73
2022/03/25 05:15:15;;;;;;;26.97;21.60;;;7.80;57.20;;;;;;5071472;28;20574;-73
2022/03/25 05:17:51;;;;;;;26.07;21.97;;;7.80;57.20;;;;;;5071834;28;20172;-73
2022/03/25 05:20:18;;;;;;;28.05;20.60;;;7.80;58.50;;;;;;5053705;28;20577;-74
2022/03/25 05:22:44;;;;;;;27.58;22.38;;;7.80;57.50;;;;;;5053950;28;20258;-73
2022/03/25 05:25:11;;;;;;;27.25;21.88;;;7.80;57.40;;;;;;5058614;23;20938;-78
2022/03/25 05:28:00;;;;;;;30.55;22.00;;;7.80;57.90;;;;;;5033337;28;20198;-78
2022/03/25 05:30:35;;;;;;;31.10;22.48;;;7.80;58.60;;;;;;5070700;28;20284;-78
2022/03/25 05:33:01;;;;;;;27.50;20.70;;;7.80;58.60;;;;;;5051816;28;20175;-79
2022/03/25 05:35:29;;;;;;;27.80;21.35;;;7.80;58.20;;;;;;5045857;28;20208;-79
2022/03/25 05:37:55;;;;;;;29.88;21.85;;;7.80;58.30;;;;;;5031593;28;20602;-79
2022/03/25 05:40:22;;;;;;;26.57;21.40;;;7.80;58.40;;;;;;5032184;28;20264;-79
2022/03/25 05:42:49;;;;;;;28.92;21.65;;;7.80;58.70;;;;;;5036374;28;20604;-79
2022/03/25 05:45:20;;;;;;;26.65;22.02;;;7.80;59.20;;;;;;5014082;28;20220;-79
2022/03/25 05:47:46;;;;;;;28.70;20.23;;;7.90;59.30;;;;;;5014034;28;20181;-78
2022/03/25 05:50:12;;;;;;;27.50;21.30;;;7.90;59.50;;;;;;5013874;28;20227;-79
2022/03/25 05:52:39;;;;;;;31.40;22.65;;;7.90;59.70;;;;;;5031668;28;20189;-79
2022/03/25 05:55:05;;;;;;;29.10;23.65;;;8.00;59.90;;;;;;5013982;28;20245;-79
2022/03/25 05:57:31;;;;;;;28.33;21.52;;;8.00;59.90;;;;;;5013805;28;20192;-79
2022/03/25 05:59:59;;;;;;;28.30;22.45;;;8.00;59.90;;;;;;5014030;28;20169;-79
2022/03/25 06:02:27;;;;;;;31.35;22.10;;;8.10;61.00;;;;;;5031682;28;20181;-78
2022/03/25 06:04:55;;;;;;;30.48;22.40;;;8.10;60.80;;;;;;5031587;28;20178;-79
2022/03/25 06:07:22;;;;;;;27.65;23.83;;;8.20;60.90;;;;;;5031119;28;20161;-79
2022/03/25 06:09:48;;;;;;;27.27;22.85;;;8.20;61.20;;;;;;5013779;28;20526;-80
2022/03/25 06:12:14;;;;;;;27.00;21.02;;;8.30;61.30;;;;;;5031596;28;20227;-80
2022/03/25 06:14:39;;;;;;;28.67;21.83;;;8.40;61.70;;;;;;5031497;28;20166;-80
2022/03/25 06:17:05;;;;;;;26.07;20.37;;;8.50;61.90;;;;;;5013499;28;20643;-80
2022/03/25 06:19:32;;;;;;;24.67;21.47;;;8.50;61.60;;;;;;5035121;28;20181;-79
2022/03/25 06:21:58;;;;;;;27.33;21.98;;;8.60;61.90;;;;;;5031749;28;20955;-80
2022/03/25 06:24:24;;;;;;;27.70;22.42;;;8.70;62.10;;;;;;5031738;28;20176;-80
2022/03/25 06:26:52;;;;;;;26.98;21.98;;;8.70;62.00;;;;;;5031813;28;20233;-80
2022/03/25 06:29:19;;;;;;;28.98;23.80;;;8.80;62.10;;;;;;5035989;28;20213;-80
2022/03/25 06:31:44;;;;;;;30.42;24.48;;;8.90;62.30;;;;;;5037079;28;20217;-80
2022/03/25 06:34:10;;;;;;;28.97;24.50;;;9.00;62.40;;;;;;5035882;28;20597;-80
2022/03/25 06:36:35;;;;;;;29.50;23.37;;;9.10;62.70;;;;;;5018055;28;20192;-80
2022/03/25 06:39:02;;;;;;;33.17;25.97;;;9.20;63.00;;;;;;5035857;28;20165;-79
2022/03/25 06:41:27;;;;;;;32.63;24.35;;;9.30;63.20;;;;;;5022680;28;20165;-79
2022/03/25 06:43:54;;;;;;;28.27;23.00;;;9.40;63.50;;;;;;5019767;28;20257;-79
2022/03/25 06:46:20;;;;;;;34.58;24.52;;;9.50;64.10;;;;;;5037619;28;20567;-80
2022/03/25 06:48:46;;;;;;;29.00;23.50;;;9.60;63.50;;;;;;5035176;28;20253;-80
2022/03/25 06:51:12;;;;;;;30.95;24.60;;;9.70;63.60;;;;;;5001066;28;20620;-80
2022/03/25 06:53:38;;;;;;;33.03;24.08;;;9.80;63.50;;;;;;5034935;28;20169;-80
2022/03/25 06:56:04;;;;;;;31.70;27.00;;;9.80;63.50;;;;;;5038981;28;20184;-80
2022/03/25 06:58:31;;;;;;;32.30;25.02;;;9.90;63.50;;;;;;5017037;28;20162;-79
2022/03/25 07:00:57;;;;;;;32.95;25.60;;;10.00;62.50;;;;;;5016917;28;20169;-80
2022/03/25 07:03:23;;;;;;;33.72;26.38;;;10.10;62.50;;;;;;5034641;28;20185;-80
2022/03/25 07:05:51;;;;;;;34.22;27.23;;;10.20;62.40;;;;;;5034660;28;20193;-80
2022/03/25 07:08:20;;;;;;;34.90;26.00;;;10.40;62.60;;;;;;5016412;28;20262;-80
2022/03/25 07:10:46;;;;;;;31.25;25.75;;;10.50;62.40;;;;;;5016639;28;20194;-79
2022/03/25 07:13:13;;;;;;;32.90;26.08;;;10.60;62.20;;;;;;5016707;28;20573;-80
2022/03/25 07:15:38;;;;;;;34.80;26.50;;;10.70;62.20;;;;;;5034473;28;20181;-80
2022/03/25 07:18:04;;;;;;;36.43;26.80;;;10.80;62.20;;;;;;5016409;28;20178;-80
2022/03/25 07:20:30;;;;;;;30.40;26.80;;;10.90;62.10;;;;;;5034195;28;20170;-80
2022/03/25 07:22:56;;;;;;;31.60;27.23;;;11.30;62.70;;;;;;5034320;28;21134;-80
2022/03/25 07:25:22;;;;;;;29.58;25.25;;;11.80;63.50;;;;;;5034161;28;20319;-81
2022/03/25 07:27:49;;;;;;;35.27;29.60;;;12.50;65.00;;;;;;5033512;28;20805;-80
2022/03/25 07:30:17;;;;;;;35.03;27.15;;;13.50;66.00;;;;;;5033884;28;20727;-82
2022/03/25 07:32:44;;;;;;;30.13;25.50;;;14.50;66.90;;;;;;5039129;28;20618;-82
2022/03/25 07:35:11;;;;;;;28.60;24.70;;;15.60;67.30;;;;;;5034580;28;20948;-82
2022/03/25 07:37:38;;;;;;;37.92;33.80;;;16.70;66.90;;;;;;5034438;28;20702;-82
2022/03/25 07:40:06;;;;;;;38.53;34.63;;;17.90;58.60;;;;;;5035386;28;21093;-82
2022/03/25 07:42:32;;;;;;;29.27;26.27;;;18.80;55.20;;;;;;5035050;28;20521;-81
2022/03/25 07:44:58;;;;;;;38.80;34.70;;;19.60;57.40;;;;;;5033510;28;20694;-81
2022/03/25 07:47:23;;;;;;;32.63;29.33;;;20.50;52.40;;;;;;5041974;28;20720;-81
2022/03/25 07:49:49;;;;;;;30.23;26.70;;;21.30;54.00;;;;;;5021951;28;20524;-80
2022/03/25 07:52:16;;;;;;;29.70;26.60;;;22.10;54.70;;;;;;5037499;28;20166;-79
2022/03/25 07:54:42;;;;;;;30.73;25.40;;;22.90;54.40;;;;;;5015994;28;20643;-79
2022/03/25 07:57:08;;;;;;;28.50;25.50;;;23.70;53.70;;;;;;5015531;28;20596;-80
2022/03/25 07:59:33;;;;;;;27.77;23.80;;;24.40;53.20;;;;;;5017382;28;20588;-80
2022/03/25 08:01:59;;;;;;;27.33;24.67;;;25.10;53.30;;;;;;5051748;28;20180;-80
2022/03/25 08:04:25;;;;;;;29.13;26.10;;;25.70;51.90;;;;;;5053495;28;20673;-80
2022/03/25 08:06:51;;;;;;;38.33;34.60;;;26.20;51.00;;;;;;5034903;28;21281;-80
2022/03/25 08:09:17;;;;;;;31.63;27.23;;;26.40;43.10;;;;;;5054548;28;20996;-80
2022/03/25 08:11:46;;;;;;;28.87;25.80;;;27.00;46.30;;;;;;5054124;28;20587;-80
2022/03/25 08:14:13;;;;;;;28.73;25.93;;;27.50;46.40;;;;;;5053394;28;20578;-81
2022/03/25 08:16:40;;;;;;;29.30;26.60;;;27.90;45.80;;;;;;5053701;28;20603;-80
2022/03/25 08:19:06;;;;;;;37.27;33.73;;;28.40;45.60;;;;;;5052515;28;21097;-81
2022/03/25 08:21:32;;;;;;;32.37;28.97;;;28.20;38.80;;;;;;5053573;28;20575;-81
2022/03/25 08:29:27;;;;;;;28.73;25.50;;;29.70;41.60;;;;;;5052503;28;20639;-81
2022/03/25 08:31:53;;;;;;;30.50;27.30;;;30.20;41.70;;;;;;5035971;28;20602;-81
2022/03/25 08:34:19;;;;;;;31.00;26.07;;;30.50;40.70;;;;;;5053422;28;20606;-81
2022/03/25 08:36:47;;;;;;;28.00;25.17;;;30.70;40.40;;;;;;5055242;28;20638;-81
2022/03/25 08:39:14;;;;;;;32.50;25.93;;;30.90;40.10;;;;;;5027851;28;21201;-80
2022/03/25 08:41:40;;;;;;;30.47;27.57;;;31.10;39.80;;;;;;5033387;28;21144;-79
2022/03/25 08:44:06;;;;;;;31.37;28.07;;;31.40;39.60;;;;;;5038483;28;20614;-80
2022/03/25 08:46:34;;;;;;;28.57;25.93;;;31.70;38.90;;;;;;5053489;28;20627;-80
2022/03/25 08:49:00;;;;;;;29.43;26.53;;;32.00;38.70;;;;;;5034772;28;21007;-79
2022/03/25 08:51:27;;;;;;;33.97;30.87;;;32.20;38.20;;;;;;5051310;28;20696;-79
2022/03/25 08:53:53;;;;;;;29.47;26.93;;;32.10;34.00;;;;;;5052982;28;20576;-79
2022/03/25 08:56:20;;;;;;;29.83;26.93;;;32.40;35.60;;;;;;5052594;28;20644;-79
2022/03/25 08:58:46;;;;;;;28.33;25.70;;;32.50;35.70;;;;;;5052257;28;20660;-79
2022/03/25 09:01:12;;;;;;;27.77;25.07;;;32.60;35.80;;;;;;5052499;28;21174;-80
2022/03/25 09:03:38;;;;;;;27.37;24.77;;;32.90;35.90;;;;;;5034375;28;20585;-79
2022/03/25 09:06:04;;;;;;;27.00;24.40;;;33.10;35.70;;;;;;5051970;28;20633;-80
2022/03/25 09:08:30;;;;;;;26.50;24.03;;;33.30;35.30;;;;;;5047412;28;20215;-80
2022/03/25 09:10:57;;;;;;;29.80;27.10;;;33.50;34.60;;;;;;5040204;28;20636;-80
2022/03/25 09:13:23;;;;;;;26.50;23.97;;;33.70;34.20;;;;;;5044031;28;20601;-80
2022/03/25 09:15:49;;;;;;;27.47;25.07;;;33.80;34.10;;;;;;5036069;28;20617;-80
2022/03/25 09:18:14;;;;;;;25.47;23.17;;;33.80;33.90;;;;;;5051813;28;20930;-80
2022/03/25 09:20:41;;;;;;;26.67;23.93;;;34.00;33.70;;;;;;5049233;28;20586;-80
2022/03/25 09:23:06;;;;;;;29.23;26.00;;;34.10;33.40;;;;;;5050344;28;20207;-79
2022/03/25 09:25:32;;;;;;;27.23;24.83;;;34.20;32.40;;;;;;5044783;28;20645;-80
2022/03/25 09:27:58;;;;;;;25.77;23.37;;;34.20;32.50;;;;;;5051666;28;20170;-80
2022/03/25 09:30:24;;;;;;;26.87;24.37;;;34.20;32.30;;;;;;5052216;28;20583;-80
2022/03/25 09:32:50;;;;;;;26.07;23.33;;;34.10;32.20;;;;;;5053642;28;20171;-80
2022/03/25 09:35:18;;;;;;;24.13;22.07;;;34.00;31.50;;;;;;5052970;28;20592;-81
2022/03/25 09:37:46;;;;;;;24.27;21.87;;;34.00;32.00;;;;;;5052563;28;20195;-79
2022/03/25 09:40:18;;;;;;;23.17;20.80;;;34.10;32.40;;;;;;5052622;28;20984;-79
2022/03/25 09:42:45;;;;;;;24.57;22.37;;;34.20;32.20;;;;;;5034511;28;20577;-79
2022/03/25 09:45:12;;;;;;;25.67;23.13;;;34.30;32.20;;;;;;5044339;28;20629;-80
2022/03/25 09:47:42;;;;;;;26.53;23.93;;;34.40;31.40;;;;;;5043936;28;20597;-79
2022/03/25 09:50:12;;;;;;;24.67;22.53;;;34.50;31.60;;;;;;5037490;28;20641;-80
2022/03/25 09:52:38;;;;;;;24.33;21.97;;;34.70;31.60;;;;;;5031934;28;20668;-80
2022/03/25 09:55:07;;;;;;;25.90;23.30;;;34.80;31.90;;;;;;5033911;28;20615;-79
2022/03/25 09:57:33;;;;;;;24.60;22.30;;;34.90;30.90;;;;;;5051767;28;20574;-79
2022/03/25 09:59:59;;;;;;;23.70;21.70;;;34.90;30.80;;;;;;5052724;28;20577;-80
2022/03/25 10:02:25;;;;;;;25.53;23.10;;;35.00;30.80;;;;;;5055100;28;20582;-81
2022/03/25 10:04:57;;;;;;;24.27;21.90;;;35.10;30.60;;;;;;5037857;28;20687;-79
2022/03/25 10:07:32;;;;;;;22.83;20.63;;;35.20;30.50;;;;;;5055843;28;21087;-79
2022/03/25 10:10:11;;;;;;;21.63;19.53;;;35.20;29.70;;;;;;5055415;28;20620;-79
2022/03/25 10:12:40;;;;;;;22.00;18.93;;;35.20;30.00;;;;;;5053468;28;20593;-80
2022/03/25 10:15:25;;;;;;;22.13;20.03;;;35.20;30.20;;;;;;5048866;28;20582;-79
2022/03/25 10:17:52;;;;;;;21.57;19.50;;;35.30;30.00;;;;;;5023827;28;20594;-79
2022/03/25 10:20:28;;;;;;;23.10;20.90;;;35.20;29.70;;;;;;5034033;28;20597;-79
2022/03/25 10:23:04;;;;;;;21.73;19.20;;;35.10;29.50;;;;;;5037688;28;20577;-79
2022/03/25 10:25:46;;;;;;;21.03;19.13;;;35.00;29.50;;;;;;5036190;28;20642;-78
2022/03/25 10:28:28;;;;;;;20.40;18.60;;;34.90;29.30;;;;;;5052527;28;20692;-79
2022/03/25 10:31:05;;;;;;;17.27;15.47;;;34.90;29.70;;;;;;5008509;28;20660;-79
2022/03/25 10:33:32;;;;;;;18.67;16.77;;;34.90;29.10;;;;;;5024874;28;20650;-79
2022/03/25 10:36:07;;;;;;;19.63;17.50;;;34.60;29.00;;;;;;5047151;28;20698;-80
2022/03/25 10:38:43;;;;;;;19.70;17.70;;;34.40;29.50;;;;;;5021111;28;20644;-79
2022/03/25 10:41:10;;;;;;;17.83;16.10;;;34.10;29.00;;;;;;5012447;28;20602;-80
2022/03/25 10:44:02;;;;;;;16.90;15.17;;;33.90;29.20;;;;;;5052565;28;20602;-79
2022/03/25 10:46:32;;;;;;;18.05;16.25;;;33.70;29.20;;;;;;5046234;28;20875;-78
2022/03/25 10:48:59;;;;;;;16.90;15.10;;;33.30;28.80;;;;;;5019752;28;20181;-78
2022/03/25 10:51:25;;;;;;;12.67;11.37;;;33.00;28.70;;;;;;5034917;28;20630;-78
2022/03/25 10:53:57;;;;;;;10.40;8.63;;;32.70;28.70;;;;;;5046923;28;20942;-79
2022/03/25 10:56:23;;;;;;;12.37;8.10;;;32.50;28.60;;;;;;5055127;28;20597;-79
2022/03/25 10:58:56;;;;;;;8.40;5.90;;;32.10;28.10;;;;;;5054451;28;20575;-79
2022/03/25 11:01:23;;;;;;;7.07;4.63;;;31.80;28.10;;;;;;5054657;28;20587;-79
2022/03/25 11:03:53;;;;;;;8.43;5.63;;;31.60;28.00;;;;;;5055085;28;20590;-79
2022/03/25 11:06:20;;;;;;;7.87;4.30;;;31.40;27.40;;;;;;5035716;28;20652;-79
2022/03/25 11:08:47;;;;;;;10.67;5.40;;;31.30;28.00;;;;;;5032339;28;20604;-79
2022/03/25 11:11:17;;;;;;;6.10;4.13;;;31.20;27.90;;;;;;5015563;28;20632;-79
2022/03/25 11:13:44;;;;;;;6.60;4.40;;;31.00;27.80;;;;;;5054536;28;20574;-78
2022/03/25 11:16:14;;;;;;;9.00;5.17;;;31.00;28.00;;;;;;5057235;28;20589;-80
2022/03/25 11:18:42;;;;;;;8.13;4.87;;;31.00;27.70;;;;;;5045645;28;21010;-79
2022/03/25 11:21:09;;;;;;;11.77;5.10;;;30.90;27.80;;;;;;5037138;28;20642;-80
2022/03/25 11:23:49;;;;;;;6.70;5.17;;;30.80;27.60;;;;;;5036854;28;20600;-80
2022/03/25 11:26:19;;;;;;;7.23;5.43;;;30.60;27.30;;;;;;5034351;28;20715;-80
2022/03/25 11:28:50;;;;;;;7.97;5.70;;;30.40;27.50;;;;;;5034546;28;20573;-80
2022/03/25 11:31:16;;;;;;;5.60;4.60;;;30.30;27.30;;;;;;5017345;28;20631;-81
2022/03/25 11:34:06;;;;;;;7.43;4.90;;;30.20;27.80;;;;;;5034484;28;20901;-81
2022/03/25 11:36:32;;;;;;;6.50;5.33;;;30.10;27.80;;;;;;5036963;28;20189;-81
2022/03/25 11:39:22;;;;;;;9.27;5.68;;;30.00;27.50;;;;;;5054575;28;20767;-81
2022/03/25 11:41:49;;;;;;;9.20;5.60;;;29.70;26.80;;;;;;5054635;28;20165;-81
2022/03/25 11:44:14;;;;;;;7.33;5.40;;;29.50;27.40;;;;;;5055974;28;20585;-81
2022/03/25 11:47:02;;;;;;;9.70;5.53;;;29.40;27.30;;;;;;5038526;28;20626;-80
2022/03/25 11:49:33;;;;;;;9.30;6.07;;;29.30;27.90;;;;;;5057054;28;20192;-80
2022/03/25 11:52:23;;;;;;;8.63;5.27;;;29.20;27.30;;;;;;5060063;28;20617;-80
2022/03/25 11:54:55;;;;;;;7.47;5.53;;;29.00;27.60;;;;;;5038966;28;20583;-81
2022/03/25 11:57:30;;;;;;;15.03;8.10;;;28.90;27.80;;;;;;5054263;28;20577;-80
2022/03/25 11:59:59;;;;;;;9.13;6.27;;;28.90;27.90;;;;;;5053824;28;21216;-80
2022/03/25 12:02:29;;;;;;;11.67;6.00;;;28.70;27.80;;;;;;5003564;28;20939;-80
2022/03/25 12:04:57;;;;;;;7.60;4.77;;;28.50;27.70;;;;;;5053459;28;20618;-80
2022/03/25 12:07:23;;;;;;;7.10;5.60;;;28.40;27.80;;;;;;5035545;28;20567;-80
2022/03/25 12:09:49;;;;;;;7.33;5.93;;;28.20;27.70;;;;;;5053642;28;20619;-80
2022/03/25 12:12:15;;;;;;;11.97;6.33;;;28.00;27.90;;;;;;5053330;28;20566;-80
2022/03/25 12:15:07;;;;;;;8.47;6.50;;;27.90;28.00;;;;;;5053259;28;20560;-80
2022/03/25 12:17:33;;;;;;;9.33;6.30;;;27.70;28.10;;;;;;5053527;28;20158;-80
2022/03/25 12:20:01;;;;;;;10.50;7.23;;;27.60;28.20;;;;;;5035599;28;20666;-80
2022/03/25 12:22:33;;;;;;;12.33;7.73;;;27.60;28.20;;;;;;5053329;28;20204;-80
2022/03/25 12:25:11;;;;;;;8.87;6.67;;;27.40;28.10;;;;;;5052104;28;20567;-80
2022/03/25 12:27:38;;;;;;;8.30;6.40;;;27.40;28.40;;;;;;5036273;28;20735;-80
2022/03/25 12:30:04;;;;;;;10.87;8.60;;;27.30;28.40;;;;;;5056490;28;20734;-80
2022/03/25 12:32:35;;;;;;;9.13;6.63;;;27.20;28.40;;;;;;5052956;28;20623;-80
2022/03/25 12:35:16;;;;;;;6.80;6.10;;;27.00;28.50;;;;;;5035061;28;20607;-80
2022/03/25 12:38:09;;;;;;;8.50;5.90;;;26.80;28.50;;;;;;5052425;28;20694;-80
2022/03/25 12:40:36;;;;;;;10.30;7.20;;;26.70;28.60;;;;;;5045036;28;20571;-80
2022/03/25 12:43:08;;;;;;;10.97;7.67;;;26.60;28.70;;;;;;5052670;28;20589;-80